createdAt,value
2018-12-09T00:01:27.660Z,0.20
2018-12-09T00:03:55.986Z,0.20
2018-12-09T00:06:24.292Z,0.20
2018-12-09T00:08:52.518Z,0.30
2018-12-09T00:11:20.832Z,0.20
2018-12-09T00:13:49.021Z,0.20
2018-12-09T00:16:18.287Z,0.10
2018-12-09T00:18:46.571Z,0.10
2018-12-09T00:21:14.748Z,0.50
2018-12-09T00:23:42.944Z,0.10
2018-12-09T00:26:11.135Z,0.27
2018-12-09T00:28:39.321Z,0.20
2018-12-09T00:31:07.496Z,0.20
2018-12-09T00:33:35.692Z,0.20
2018-12-09T00:36:04.005Z,0.20
2018-12-09T00:38:32.204Z,0.20
2018-12-09T00:41:00.384Z,0.20
2018-12-09T00:43:28.685Z,0.20
2018-12-09T00:46:00.163Z,0.20
2018-12-09T00:48:28.370Z,0.10
2018-12-09T00:50:56.654Z,0.30
2018-12-09T00:53:25.241Z,0.10
2018-12-09T00:55:53.514Z,0.27
2018-12-09T00:58:21.717Z,0.20
2018-12-09T01:00:50.145Z,0.27
2018-12-09T01:03:18.316Z,0.17
2018-12-09T01:05:46.592Z,0.10
2018-12-09T01:08:14.788Z,0.20
2018-12-09T01:10:43.069Z,0.20
2018-12-09T01:13:11.255Z,0.27
2018-12-09T01:15:39.549Z,0.10
2018-12-09T01:18:07.832Z,0.10
2018-12-09T01:20:36.016Z,0.10
2018-12-09T01:23:04.258Z,0.10
2018-12-09T01:25:32.556Z,0.20
2018-12-09T01:28:00.754Z,0.20
2018-12-09T01:30:28.943Z,0.20
2018-12-09T01:32:57.124Z,0.20
2018-12-09T01:35:25.504Z,0.20
2018-12-09T01:37:53.701Z,0.20
2018-12-09T01:40:22.776Z,0.20
2018-12-09T01:42:51.064Z,0.20
2018-12-09T01:45:19.525Z,0.20
2018-12-09T01:47:47.708Z,0.20
2018-12-09T01:50:16.003Z,0.30
2018-12-09T01:52:50.723Z,0.10
2018-12-09T01:55:19.095Z,0.10
2018-12-09T01:57:47.406Z,0.43
2018-12-09T02:00:16.017Z,0.10
2018-12-09T02:02:44.637Z,0.10
2018-12-09T02:05:12.918Z,0.20
2018-12-09T02:07:41.497Z,0.17
2018-12-09T02:10:09.789Z,0.20
2018-12-09T02:12:38.124Z,0.10
2018-12-09T02:15:06.484Z,0.33
2018-12-09T02:17:34.848Z,0.20
2018-12-09T02:20:03.128Z,0.10
2018-12-09T02:22:31.432Z,0.40
2018-12-09T02:24:59.697Z,0.33
2018-12-09T02:27:27.971Z,0.30
2018-12-09T02:29:56.448Z,0.20
2018-12-09T02:32:24.764Z,0.20
2018-12-09T02:34:53.161Z,0.10
2018-12-09T02:37:21.662Z,0.10
2018-12-09T02:39:49.865Z,0.20
2018-12-09T02:42:18.441Z,0.10
2018-12-09T02:44:46.724Z,0.20
2018-12-09T02:47:14.945Z,0.50
2018-12-09T02:49:43.135Z,0.10
2018-12-09T02:52:11.712Z,0.10
2018-12-09T02:54:40.001Z,0.10
2018-12-09T02:57:08.282Z,0.10
2018-12-09T02:59:36.554Z,0.10
2018-12-09T03:02:05.633Z,0.17
2018-12-09T03:04:34.000Z,0.33
2018-12-09T03:07:02.185Z,0.30
2018-12-09T03:09:30.406Z,0.20
2018-12-09T03:11:58.734Z,0.23
2018-12-09T03:14:27.470Z,0.10
2018-12-09T03:16:55.748Z,0.30
2018-12-09T03:19:23.944Z,0.40
2018-12-09T03:21:52.241Z,0.10
2018-12-09T03:24:20.847Z,0.20
2018-12-09T03:26:49.128Z,0.10
2018-12-09T03:29:17.413Z,0.20
2018-12-09T03:31:45.725Z,0.30
2018-12-09T03:34:14.449Z,0.10
2018-12-09T03:36:42.731Z,0.17
2018-12-09T03:39:11.005Z,0.13
2018-12-09T03:41:39.392Z,0.17
2018-12-09T03:44:07.665Z,0.60
2018-12-09T03:46:35.961Z,0.20
2018-12-09T03:49:05.308Z,0.30
2018-12-09T03:51:33.601Z,0.20
2018-12-09T03:54:01.784Z,0.50
2018-12-09T03:56:30.392Z,0.10
2018-12-09T03:58:59.193Z,0.30
2018-12-09T04:01:27.376Z,0.27
2018-12-09T04:03:55.653Z,0.40
2018-12-09T04:06:23.966Z,0.40
2018-12-09T04:08:52.245Z,0.40
2018-12-09T04:11:20.447Z,0.30
2018-12-09T04:13:50.830Z,0.60
2018-12-09T04:16:19.145Z,0.20
2018-12-09T04:18:47.345Z,0.37
2018-12-09T04:21:15.661Z,0.20
2018-12-09T04:23:44.366Z,0.23
2018-12-09T04:26:12.570Z,0.37
2018-12-09T04:28:40.749Z,0.20
2018-12-09T04:31:09.038Z,0.20
2018-12-09T04:33:37.593Z,0.20
2018-12-09T04:36:05.972Z,0.27
2018-12-09T04:38:34.152Z,0.20
2018-12-09T04:41:02.446Z,0.17
2018-12-09T04:43:30.732Z,0.20
2018-12-09T04:45:58.916Z,0.20
2018-12-09T04:48:27.188Z,0.20
2018-12-09T04:50:55.372Z,0.20
2018-12-09T04:53:23.896Z,0.30
2018-12-09T04:55:52.088Z,0.30
2018-12-09T04:58:20.305Z,0.20
2018-12-09T05:00:54.497Z,0.40
2018-12-09T05:03:23.745Z,0.20
2018-12-09T05:05:52.017Z,0.20
2018-12-09T05:08:20.377Z,0.30
2018-12-09T05:10:48.666Z,0.60
2018-12-09T05:13:16.960Z,0.23
2018-12-09T05:15:45.937Z,0.30
2018-12-09T05:18:14.208Z,0.30
2018-12-09T05:20:42.437Z,0.50
2018-12-09T05:23:10.628Z,0.30
2018-12-09T05:25:38.819Z,0.20
2018-12-09T05:28:07.000Z,0.30
2018-12-09T05:30:35.258Z,0.27
2018-12-09T05:33:04.074Z,0.27
2018-12-09T05:35:32.278Z,0.30
2018-12-09T05:38:00.560Z,0.20
2018-12-09T05:40:28.756Z,0.30
2018-12-09T05:42:56.936Z,0.30
2018-12-09T05:45:25.612Z,0.40
2018-12-09T05:47:53.805Z,0.30
2018-12-09T05:50:21.992Z,0.50
2018-12-09T05:52:50.208Z,0.30
2018-12-09T05:55:18.471Z,0.50
2018-12-09T05:57:47.048Z,0.20
2018-12-09T06:00:15.320Z,0.30
2018-12-09T06:02:52.424Z,0.40
2018-12-09T06:05:20.714Z,0.27
2018-12-09T06:07:49.625Z,0.30
2018-12-09T06:10:17.945Z,0.20
2018-12-09T06:12:46.159Z,0.20
2018-12-09T06:15:14.522Z,0.40
2018-12-09T06:17:42.717Z,0.30
2018-12-09T06:20:11.380Z,0.33
2018-12-09T06:22:39.748Z,0.30
2018-12-09T06:25:08.228Z,0.47
2018-12-09T06:27:36.505Z,0.40
2018-12-09T06:30:06.632Z,0.70
2018-12-09T06:32:34.828Z,0.40
2018-12-09T06:35:03.013Z,0.63
2018-12-09T06:37:31.257Z,0.50
2018-12-09T06:39:59.486Z,0.40
2018-12-09T06:42:27.791Z,0.30
2018-12-09T06:44:56.105Z,0.30
2018-12-09T06:47:24.413Z,0.30
2018-12-09T06:49:52.625Z,0.30
2018-12-09T06:52:21.018Z,0.40
2018-12-09T06:54:49.297Z,0.40
2018-12-09T06:57:17.520Z,0.37
2018-12-09T06:59:45.705Z,0.37
2018-12-09T07:02:13.984Z,0.30
2018-12-09T07:04:42.164Z,0.60
2018-12-09T07:07:10.440Z,0.20
2018-12-09T07:09:38.913Z,0.27
2018-12-09T07:12:07.205Z,0.30
2018-12-09T07:14:35.484Z,0.30
2018-12-09T07:17:03.853Z,0.60
2018-12-09T07:19:32.129Z,0.80
2018-12-09T07:22:00.613Z,0.40
2018-12-09T07:24:28.905Z,0.30
2018-12-09T07:26:57.130Z,0.40
2018-12-09T07:29:25.327Z,0.53
2018-12-09T07:31:53.617Z,0.30
2018-12-09T07:34:22.188Z,0.60
2018-12-09T07:36:50.565Z,0.60
2018-12-09T07:39:18.840Z,0.47
2018-12-09T07:41:47.028Z,0.40
2018-12-09T07:44:15.254Z,0.50
2018-12-09T07:46:43.825Z,0.60
2018-12-09T07:49:12.204Z,0.43
2018-12-09T07:51:40.541Z,1.30
2018-12-09T07:54:08.729Z,0.67
2018-12-09T07:56:36.940Z,0.70
2018-12-09T07:59:07.573Z,0.90
2018-12-09T08:01:35.984Z,0.50
2018-12-09T08:04:04.182Z,0.63
2018-12-09T08:06:32.512Z,0.70
2018-12-09T08:09:01.412Z,0.70
2018-12-09T08:11:29.832Z,1.10
2018-12-09T08:13:58.060Z,0.60
2018-12-09T08:16:26.488Z,0.80
2018-12-09T08:18:54.690Z,0.73
2018-12-09T08:21:23.057Z,0.57
2018-12-09T08:23:51.253Z,0.67
2018-12-09T08:26:19.529Z,0.77
2018-12-09T08:28:47.725Z,0.93
2018-12-09T08:31:15.913Z,1.37
2018-12-09T08:33:44.320Z,1.20
2018-12-09T08:36:12.621Z,1.27
2018-12-09T08:38:40.833Z,0.73
2018-12-09T08:41:09.117Z,0.93
2018-12-09T08:43:37.341Z,0.90
2018-12-09T08:46:05.652Z,0.80
2018-12-09T08:48:34.109Z,0.50
2018-12-09T08:51:02.400Z,0.70
2018-12-09T08:53:30.650Z,0.60
2018-12-09T08:55:58.949Z,0.57
2018-12-09T08:58:27.142Z,0.80
2018-12-09T09:00:56.304Z,1.10
2018-12-09T09:03:24.836Z,0.80
2018-12-09T09:05:53.853Z,0.70
2018-12-09T09:08:22.572Z,0.67
2018-12-09T09:10:50.767Z,0.60
2018-12-09T09:13:18.968Z,0.90
2018-12-09T09:15:47.168Z,0.93
2018-12-09T09:18:15.405Z,1.27
2018-12-09T09:20:43.657Z,1.17
2018-12-09T09:23:11.905Z,0.97
2018-12-09T09:25:41.001Z,0.80
2018-12-09T09:28:09.181Z,0.97
2018-12-09T09:30:37.653Z,1.00
2018-12-09T09:33:05.848Z,1.13
2018-12-09T09:35:34.461Z,1.20
2018-12-09T09:38:03.072Z,0.93
2018-12-09T09:40:31.311Z,1.50
2018-12-09T09:42:59.514Z,1.30
2018-12-09T09:45:27.705Z,1.87
2018-12-09T09:47:56.133Z,1.20
2018-12-09T09:50:24.317Z,1.10
2018-12-09T09:52:52.509Z,1.30
2018-12-09T09:55:20.685Z,1.73
2018-12-09T09:57:49.030Z,1.43
2018-12-09T10:00:17.208Z,1.43
2018-12-09T10:02:45.445Z,1.63
2018-12-09T10:05:13.712Z,1.80
2018-12-09T10:07:41.911Z,1.50
2018-12-09T10:10:10.106Z,1.40
2018-12-09T10:12:38.304Z,2.03
2018-12-09T10:15:06.577Z,1.43
2018-12-09T10:17:34.981Z,1.37
2018-12-09T10:20:03.581Z,1.57
2018-12-09T10:22:31.793Z,1.70
2018-12-09T10:25:00.065Z,1.80
2018-12-09T10:27:28.240Z,1.33
2018-12-09T10:29:56.430Z,1.10
2018-12-09T10:32:24.603Z,0.87
2018-12-09T10:34:52.781Z,1.20
2018-12-09T10:37:20.949Z,1.13
2018-12-09T10:39:49.133Z,1.17
2018-12-09T10:42:17.401Z,4.37
2018-12-09T10:44:45.860Z,0.90
2018-12-09T10:47:14.225Z,1.03
2018-12-09T10:49:42.400Z,1.67
2018-12-09T10:52:10.567Z,1.10
2018-12-09T10:54:38.758Z,0.80
2018-12-09T10:57:07.021Z,1.07
2018-12-09T10:59:35.209Z,1.30
2018-12-09T11:02:08.804Z,1.00
2018-12-09T11:04:36.984Z,1.03
2018-12-09T11:07:05.164Z,1.93
2018-12-09T11:09:33.393Z,1.17
2018-12-09T11:12:01.600Z,2.27
2018-12-09T11:14:29.792Z,2.07
2018-12-09T11:16:57.984Z,2.80
2018-12-09T11:19:26.164Z,1.80
2018-12-09T11:21:54.332Z,2.07
2018-12-09T11:24:22.510Z,1.43
2018-12-09T11:26:50.688Z,2.47
2018-12-09T11:29:18.865Z,1.77
2018-12-09T11:31:47.032Z,1.50
2018-12-09T11:34:15.229Z,2.80
2018-12-09T11:36:43.404Z,2.70
2018-12-09T11:39:11.581Z,1.83
2018-12-09T11:41:39.772Z,2.53
2018-12-09T11:44:08.043Z,1.90
2018-12-09T11:46:36.316Z,3.07
2018-12-09T11:49:04.625Z,2.00
2018-12-09T11:51:32.829Z,2.00
2018-12-09T11:54:01.064Z,1.53
2018-12-09T11:56:29.237Z,1.60
2018-12-09T11:58:57.504Z,1.33
2018-12-09T12:01:25.671Z,1.70
2018-12-09T12:03:53.853Z,1.23
2018-12-09T12:06:22.108Z,2.27
2018-12-09T12:08:50.288Z,1.70
2018-12-09T12:11:18.747Z,1.60
2018-12-09T12:13:46.925Z,2.57
2018-12-09T12:16:15.116Z,2.30
2018-12-09T12:18:43.347Z,1.50
2018-12-09T12:21:11.556Z,2.10
2018-12-09T12:23:39.864Z,2.23
2018-12-09T12:26:09.121Z,1.80
2018-12-09T12:28:38.487Z,2.33
2018-12-09T12:31:07.227Z,2.27
2018-12-09T12:33:35.550Z,1.77
2018-12-09T12:36:04.382Z,2.23
2018-12-09T12:38:33.074Z,2.13
2018-12-09T12:41:01.329Z,2.40
2018-12-09T12:43:29.914Z,2.87
2018-12-09T12:45:58.766Z,1.70
2018-12-09T12:48:27.540Z,1.80
2018-12-09T12:50:56.149Z,1.53
2018-12-09T12:53:25.376Z,1.90
2018-12-09T12:55:54.704Z,2.50
2018-12-09T12:58:22.859Z,1.60
2018-12-09T13:00:51.592Z,3.10
2018-12-09T13:03:20.246Z,2.17
2018-12-09T13:05:49.078Z,3.30
2018-12-09T13:08:18.067Z,3.43
2018-12-09T13:10:46.609Z,2.13
2018-12-09T13:13:19.960Z,2.50
2018-12-09T13:15:58.253Z,2.73
2018-12-09T13:18:26.596Z,3.53
2018-12-09T13:20:56.157Z,1.97
2018-12-09T13:23:25.917Z,2.77
2018-12-09T13:25:54.817Z,3.50
2018-12-09T13:28:23.369Z,1.93
2018-12-09T13:30:51.946Z,2.17
2018-12-09T13:33:20.246Z,2.30
2018-12-09T13:35:48.711Z,2.23
2018-12-09T13:38:17.651Z,1.87
2018-12-09T13:40:46.281Z,2.53
2018-12-09T13:43:15.277Z,2.10
2018-12-09T13:45:45.487Z,2.17
2018-12-09T13:48:14.295Z,1.73
2018-12-09T13:50:43.478Z,1.30
2018-12-09T13:53:13.018Z,1.70
2018-12-09T13:55:41.845Z,1.53
2018-12-09T13:58:11.176Z,1.50
2018-12-09T14:00:39.730Z,2.13
2018-12-09T14:03:09.006Z,1.27
2018-12-09T14:05:39.248Z,1.43
2018-12-09T14:08:08.256Z,1.60
2018-12-09T14:10:37.416Z,1.43
2018-12-09T14:13:07.313Z,1.43
2018-12-09T14:15:36.761Z,1.10
2018-12-09T14:18:05.990Z,0.83
2018-12-09T14:20:36.369Z,1.10
2018-12-09T14:23:05.212Z,0.80
2018-12-09T14:25:35.219Z,0.80
2018-12-09T14:28:04.219Z,1.40
2018-12-09T14:30:33.404Z,1.00
2018-12-09T14:33:02.909Z,1.53
2018-12-09T14:35:31.167Z,1.47
2018-12-09T14:38:04.167Z,1.20
2018-12-09T14:40:37.590Z,1.30
2018-12-09T14:43:11.790Z,0.90
2018-12-09T14:45:48.892Z,1.20
2018-12-09T14:48:18.569Z,1.17
2018-12-09T14:50:53.813Z,1.20
2018-12-09T14:53:28.096Z,1.30
2018-12-09T14:55:56.597Z,0.90
2018-12-09T14:58:25.003Z,1.00
2018-12-09T15:00:59.337Z,0.90
2018-12-09T15:03:27.764Z,0.80
2018-12-09T15:05:56.510Z,1.43
2018-12-09T15:08:32.949Z,1.10
2018-12-09T15:11:01.461Z,0.90
2018-12-09T15:13:36.618Z,1.07
2018-12-09T15:16:05.202Z,0.80
2018-12-09T15:18:33.577Z,0.60
2018-12-09T15:21:04.855Z,0.83
2018-12-09T15:23:33.806Z,1.00
2018-12-09T15:26:01.993Z,0.70
2018-12-09T15:28:30.264Z,1.47
2018-12-09T15:30:58.470Z,1.00
2018-12-09T15:33:26.722Z,1.00
2018-12-09T15:36:03.506Z,1.13
2018-12-09T15:38:32.181Z,0.90
2018-12-09T15:41:00.429Z,0.50
2018-12-09T15:43:28.641Z,0.90
2018-12-09T15:45:56.949Z,0.80
2018-12-09T15:48:27.974Z,0.90
2018-12-09T15:50:56.627Z,1.50
2018-12-09T15:53:24.824Z,1.13
2018-12-09T15:55:54.267Z,1.70
2018-12-09T15:58:36.136Z,1.03
2018-12-09T16:01:04.507Z,0.90
2018-12-09T16:03:33.785Z,1.20
2018-12-09T16:06:02.018Z,1.03
2018-12-09T16:08:31.179Z,1.23
2018-12-09T16:11:00.195Z,1.10
2018-12-09T16:13:30.861Z,0.77
2018-12-09T16:16:00.859Z,1.00
2018-12-09T16:18:29.567Z,1.03
2018-12-09T16:20:57.972Z,1.00
2018-12-09T16:23:32.249Z,0.77
2018-12-09T16:26:10.236Z,0.60
2018-12-09T16:28:51.949Z,1.30
2018-12-09T16:31:20.338Z,0.90
2018-12-09T16:33:49.787Z,0.90
2018-12-09T16:36:21.726Z,0.80
2018-12-09T16:38:55.053Z,0.90
2018-12-09T16:41:23.389Z,1.10
2018-12-09T16:43:51.645Z,1.20
2018-12-09T16:46:21.062Z,0.43
2018-12-09T16:48:50.360Z,1.00
2018-12-09T16:51:23.419Z,0.87
2018-12-09T16:53:52.910Z,0.90
2018-12-09T16:56:21.164Z,0.90
2018-12-09T16:58:57.461Z,0.80
2018-12-09T17:01:27.462Z,0.60
2018-12-09T17:03:56.235Z,0.70
2018-12-09T17:06:24.823Z,0.70
2018-12-09T17:08:53.189Z,0.70
2018-12-09T17:11:22.341Z,0.70
2018-12-09T17:13:50.658Z,0.63
2018-12-09T17:16:21.567Z,0.67
2018-12-09T17:18:51.224Z,0.80
2018-12-09T17:21:20.317Z,0.67
2018-12-09T17:23:54.464Z,0.60
2018-12-09T17:26:24.724Z,0.40
2018-12-09T17:28:53.139Z,0.70
2018-12-09T17:31:24.585Z,1.03
2018-12-09T17:33:58.909Z,0.70
2018-12-09T17:36:33.777Z,0.90
2018-12-09T17:39:02.588Z,0.50
2018-12-09T17:41:31.089Z,0.77
2018-12-09T17:44:00.433Z,0.80
2018-12-09T17:46:34.231Z,0.50
2018-12-09T17:49:02.668Z,0.60
2018-12-09T17:51:31.073Z,1.00
2018-12-09T17:53:59.517Z,0.70
2018-12-09T17:56:27.737Z,0.70
2018-12-09T17:58:55.998Z,0.60
2018-12-09T18:01:24.547Z,0.60
2018-12-09T18:03:53.081Z,1.27
2018-12-09T18:06:21.507Z,1.00
2018-12-09T18:08:49.874Z,0.57
2018-12-09T18:11:19.316Z,0.53
2018-12-09T18:13:48.465Z,1.00
2018-12-09T18:16:16.973Z,0.67
2018-12-09T18:18:45.196Z,0.70
2018-12-09T18:21:13.528Z,0.70
2018-12-09T18:23:48.675Z,0.90
2018-12-09T18:26:17.014Z,0.70
2018-12-09T18:28:45.363Z,0.80
2018-12-09T18:31:13.622Z,1.47
2018-12-09T18:33:42.647Z,1.43
2018-12-09T18:36:11.391Z,1.10
2018-12-09T18:38:40.049Z,1.10
2018-12-09T18:41:08.413Z,1.40
2018-12-09T18:43:36.654Z,1.77
2018-12-09T18:46:05.075Z,1.23
2018-12-09T18:48:35.416Z,0.90
2018-12-09T18:51:03.708Z,1.00
2018-12-09T18:53:37.180Z,1.17
2018-12-09T18:56:05.788Z,0.90
2018-12-09T18:58:38.265Z,0.70
2018-12-09T19:01:06.593Z,0.97
2018-12-09T19:03:34.965Z,0.90
2018-12-09T19:06:03.382Z,0.70
2018-12-09T19:08:31.909Z,0.50
2018-12-09T19:11:03.663Z,0.70
2018-12-09T19:13:32.466Z,0.83
2018-12-09T19:16:00.905Z,1.70
2018-12-09T19:18:29.669Z,1.53
2018-12-09T19:20:57.969Z,1.27
2018-12-09T19:23:26.376Z,1.13
2018-12-09T19:25:54.686Z,1.20
2018-12-09T19:28:29.783Z,1.20
2018-12-09T19:31:04.823Z,1.63
2018-12-09T19:33:33.303Z,1.20
2018-12-09T19:36:01.543Z,1.07
2018-12-09T19:38:40.141Z,1.10
2018-12-09T19:41:06.112Z,1.30
2018-12-09T19:43:35.411Z,0.70
2018-12-09T19:46:04.129Z,0.80
2018-12-09T19:48:32.611Z,1.10
2018-12-09T19:51:09.989Z,1.03
2018-12-09T19:53:44.791Z,0.70
2018-12-09T19:56:13.357Z,1.10
2018-12-09T19:58:41.593Z,1.17
2018-12-09T20:01:09.822Z,1.37
2018-12-09T20:03:38.048Z,1.50
2018-12-09T20:06:06.614Z,1.60
2018-12-09T20:08:34.879Z,1.67
2018-12-09T20:11:07.176Z,2.03
2018-12-09T20:13:36.460Z,1.73
2018-12-09T20:16:04.698Z,0.90
2018-12-09T20:18:33.104Z,0.93
2018-12-09T20:21:01.330Z,1.77
2018-12-09T20:23:29.545Z,0.87
2018-12-09T20:25:57.872Z,1.00
2018-12-09T20:28:27.385Z,1.50
2018-12-09T20:33:33.906Z,1.37
2018-12-09T20:36:02.295Z,1.30
2018-12-09T20:38:30.572Z,1.17
2018-12-09T20:40:59.268Z,0.80
2018-12-09T20:43:27.553Z,0.60
2018-12-09T20:46:00.729Z,0.73
2018-12-09T20:48:29.151Z,0.73
2018-12-09T20:50:57.551Z,0.83
2018-12-09T20:53:26.073Z,0.90
2018-12-09T20:55:58.248Z,0.70
2018-12-09T20:58:34.248Z,0.80
2018-12-09T21:01:02.927Z,0.80
2018-12-09T21:03:31.180Z,0.53
2018-12-09T21:05:59.400Z,0.90
2018-12-09T21:08:28.795Z,0.97
2018-12-09T21:11:08.156Z,0.90
2018-12-09T21:13:36.992Z,0.80
2018-12-09T21:16:07.518Z,1.00
2018-12-09T21:18:40.768Z,1.30
2018-12-09T21:21:09.832Z,1.00
2018-12-09T21:23:38.930Z,1.10
2018-12-09T21:29:17.666Z,0.53
2018-12-09T21:31:53.153Z,0.67
2018-12-09T21:34:30.396Z,0.40
2018-12-09T21:36:59.045Z,0.90
2018-12-09T21:39:27.309Z,0.73
2018-12-09T21:41:55.751Z,0.80
2018-12-09T21:44:24.065Z,0.80
2018-12-09T21:46:54.319Z,0.80
2018-12-09T21:49:22.589Z,0.90
2018-12-09T21:52:02.339Z,0.87
2018-12-09T21:54:31.024Z,1.40
2018-12-09T21:56:59.290Z,1.10
2018-12-09T21:59:27.509Z,0.60
2018-12-09T22:02:02.321Z,0.90
2018-12-09T22:04:30.884Z,1.23
2018-12-09T22:07:00.048Z,0.67
2018-12-09T22:09:28.983Z,0.97
2018-12-09T22:11:57.467Z,1.20
2018-12-09T22:14:26.027Z,1.10
2018-12-09T22:17:00.608Z,1.17
2018-12-09T22:19:29.922Z,1.37
2018-12-09T22:21:58.241Z,1.40
2018-12-09T22:24:33.166Z,1.00
2018-12-09T22:27:09.986Z,1.00
2018-12-09T22:29:38.740Z,1.20
2018-12-09T22:32:07.143Z,1.00
2018-12-09T22:34:38.996Z,0.97
2018-12-09T22:37:07.674Z,1.20
2018-12-09T22:39:42.683Z,1.30
2018-12-09T22:42:13.475Z,1.43
2018-12-09T22:44:46.655Z,1.10
2018-12-09T22:47:28.208Z,0.87
2018-12-09T22:49:57.219Z,1.50
2018-12-09T22:52:26.444Z,1.03
2018-12-09T22:54:56.132Z,1.60
2018-12-09T22:57:26.266Z,1.43
2018-12-09T22:59:56.014Z,1.33
2018-12-09T23:02:31.333Z,1.60
2018-12-09T23:05:00.187Z,1.17
2018-12-09T23:07:34.241Z,1.03
2018-12-09T23:10:02.708Z,1.63
2018-12-09T23:12:31.145Z,1.87
2018-12-09T23:14:59.459Z,1.60
2018-12-09T23:17:27.782Z,1.30
2018-12-09T23:20:00.006Z,1.80
2018-12-09T23:22:28.251Z,1.27
2018-12-09T23:24:56.741Z,1.60
2018-12-09T23:27:25.130Z,1.50
2018-12-09T23:29:53.329Z,1.67
2018-12-09T23:32:21.796Z,2.17
2018-12-09T23:34:51.746Z,1.73
2018-12-09T23:37:24.187Z,1.60
2018-12-09T23:39:53.663Z,1.50
2018-12-09T23:42:22.306Z,1.27
2018-12-09T23:44:50.821Z,1.07
2018-12-09T23:47:19.704Z,0.90
2018-12-09T23:49:48.999Z,1.00
2018-12-09T23:52:18.457Z,1.13
2018-12-09T23:54:47.563Z,0.80
2018-12-09T23:57:16.793Z,0.83
2018-12-09T23:59:45.577Z,1.00
